createdAt,value
2023-05-24T00:01:30.866Z,9.27
2023-05-24T00:04:01.119Z,9.17
2023-05-24T00:06:29.683Z,11.97
2023-05-24T00:08:58.234Z,11.43
2023-05-24T00:11:27.871Z,11.77
2023-05-24T00:13:57.823Z,12.57
2023-05-24T00:16:26.609Z,12.67
2023-05-24T00:18:55.226Z,12.80
2023-05-24T00:21:23.649Z,8.97
2023-05-24T00:23:52.847Z,5.43
2023-05-24T00:26:21.712Z,9.13
2023-05-24T00:29:02.806Z,15.57
2023-05-24T00:31:31.543Z,9.33
2023-05-24T00:34:00.047Z,5.93
2023-05-24T00:36:28.735Z,11.33
2023-05-24T00:38:57.254Z,10.80
2023-05-24T00:41:26.472Z,7.00
2023-05-24T00:43:55.007Z,10.50
2023-05-24T00:46:33.360Z,6.90
2023-05-24T00:49:02.792Z,11.20
2023-05-24T00:51:32.683Z,7.97
2023-05-24T00:54:01.926Z,11.73
2023-05-24T00:56:31.341Z,15.33
2023-05-24T00:59:01.287Z,12.97
2023-05-24T01:01:31.929Z,5.80
2023-05-24T01:04:00.978Z,9.97
2023-05-24T01:06:30.907Z,12.13
2023-05-24T01:09:18.514Z,5.80
2023-05-24T01:11:56.959Z,10.93
2023-05-24T01:14:31.108Z,8.00
2023-05-24T01:17:09.506Z,7.33
2023-05-24T01:19:57.834Z,10.17
2023-05-24T01:22:44.221Z,7.53
2023-05-24T01:25:22.034Z,10.80
2023-05-24T01:27:52.432Z,9.20
2023-05-24T01:30:21.915Z,11.43
2023-05-24T01:32:51.072Z,7.43
2023-05-24T01:35:19.748Z,7.43
2023-05-24T01:37:48.324Z,13.23
2023-05-24T01:40:17.293Z,10.73
2023-05-24T01:42:54.259Z,14.77
2023-05-24T01:45:31.042Z,18.83
2023-05-24T01:48:06.663Z,11.47
2023-05-24T01:50:40.190Z,15.37
2023-05-24T01:53:14.181Z,12.10
2023-05-24T01:55:43.711Z,11.17
2023-05-24T01:58:15.001Z,11.50
2023-05-24T02:00:46.717Z,11.97
2023-05-24T02:03:16.719Z,11.57
2023-05-24T02:05:46.889Z,12.57
2023-05-24T02:08:15.840Z,11.90
2023-05-24T02:10:44.485Z,10.07
2023-05-24T02:13:13.311Z,14.67
2023-05-24T02:15:42.030Z,19.03
2023-05-24T02:18:18.820Z,10.13
2023-05-24T02:20:47.558Z,14.63
2023-05-24T02:23:17.779Z,20.87
2023-05-24T02:25:46.537Z,15.03
2023-05-24T02:28:15.224Z,9.60
2023-05-24T02:30:44.883Z,12.17
2023-05-24T02:33:13.689Z,14.80
2023-05-24T02:35:43.511Z,11.83
2023-05-24T02:38:12.095Z,12.53
2023-05-24T02:40:41.055Z,15.73
2023-05-24T02:43:10.700Z,9.87
2023-05-24T02:45:39.244Z,17.23
2023-05-24T02:48:08.036Z,10.73
2023-05-24T02:50:37.224Z,6.83
2023-05-24T02:53:07.206Z,11.07
2023-05-24T02:55:35.655Z,8.60
2023-05-24T02:58:04.307Z,11.60
2023-05-24T03:00:34.418Z,15.13
2023-05-24T03:03:03.828Z,13.40
2023-05-24T03:05:33.936Z,13.03
2023-05-24T03:08:02.370Z,9.90
2023-05-24T03:10:32.242Z,11.37
2023-05-24T03:13:00.840Z,15.03
2023-05-24T03:15:30.145Z,8.83
2023-05-24T03:17:58.789Z,15.03
2023-05-24T03:20:28.606Z,11.53
2023-05-24T03:22:57.375Z,14.10
2023-05-24T03:25:27.505Z,10.93
2023-05-24T03:27:57.398Z,10.90
2023-05-24T03:30:26.222Z,5.53
2023-05-24T03:32:57.066Z,9.50
2023-05-24T03:35:25.829Z,16.00
2023-05-24T03:37:54.486Z,13.37
2023-05-24T03:40:23.064Z,11.00
2023-05-24T03:42:55.588Z,13.47
2023-05-24T03:45:39.659Z,8.60
2023-05-24T03:48:08.909Z,10.23
2023-05-24T03:50:37.443Z,14.70
2023-05-24T03:53:06.349Z,12.37
2023-05-24T03:55:35.011Z,12.17
2023-05-24T03:58:03.574Z,14.97
2023-05-24T04:00:32.228Z,19.07
2023-05-24T04:03:02.576Z,18.03
2023-05-24T04:05:31.234Z,16.93
2023-05-24T04:07:59.918Z,10.10
2023-05-24T04:10:28.401Z,11.27
2023-05-24T04:12:57.552Z,12.40
2023-05-24T04:15:26.504Z,14.50
2023-05-24T04:17:55.701Z,11.07
2023-05-24T04:20:27.725Z,17.93
2023-05-24T04:22:56.542Z,12.73
2023-05-24T04:25:25.247Z,11.57
2023-05-24T04:27:53.787Z,10.83
2023-05-24T04:30:22.624Z,12.80
2023-05-24T04:32:54.555Z,17.27
2023-05-24T04:35:23.528Z,12.20
2023-05-24T04:37:53.673Z,11.53
2023-05-24T04:40:23.022Z,15.43
2023-05-24T04:42:51.949Z,16.03
2023-05-24T04:45:20.581Z,16.17
2023-05-24T04:47:48.985Z,14.67
2023-05-24T04:50:17.922Z,25.77
2023-05-24T04:52:46.315Z,17.20
2023-05-24T04:55:16.263Z,22.27
2023-05-24T04:57:44.794Z,17.07
2023-05-24T05:00:14.702Z,22.07
2023-05-24T05:02:43.185Z,20.70
2023-05-24T05:05:12.837Z,19.27
2023-05-24T05:07:41.669Z,21.07
2023-05-24T05:10:10.884Z,28.87
2023-05-24T05:12:40.878Z,17.07
2023-05-24T05:15:10.835Z,20.53
2023-05-24T05:17:39.534Z,27.47
2023-05-24T05:20:09.306Z,26.47
2023-05-24T05:22:37.950Z,25.67
2023-05-24T05:25:07.270Z,27.07
2023-05-24T05:27:35.738Z,27.27
2023-05-24T05:30:06.540Z,23.27
2023-05-24T05:32:35.160Z,21.17
2023-05-24T05:35:03.769Z,31.17
2023-05-24T05:37:32.292Z,23.73
2023-05-24T05:40:00.833Z,25.93
2023-05-24T05:42:29.381Z,18.10
2023-05-24T05:44:58.903Z,22.43
2023-05-24T05:47:28.824Z,20.77
2023-05-24T05:49:57.324Z,21.47
2023-05-24T05:52:25.815Z,24.97
2023-05-24T05:54:54.542Z,25.27
2023-05-24T05:57:24.525Z,23.17
2023-05-24T05:59:53.376Z,28.80
2023-05-24T06:02:22.963Z,22.63
2023-05-24T06:04:53.142Z,22.63
2023-05-24T06:07:21.794Z,29.70
2023-05-24T06:09:51.295Z,20.43
2023-05-24T06:12:19.859Z,25.00
2023-05-24T06:14:50.737Z,24.17
2023-05-24T06:17:19.609Z,24.90
2023-05-24T06:19:48.572Z,17.50
2023-05-24T06:22:18.679Z,22.07
2023-05-24T06:24:47.422Z,24.77
2023-05-24T06:27:16.345Z,22.60
2023-05-24T06:29:45.052Z,27.77
2023-05-24T06:32:13.753Z,19.53
2023-05-24T06:34:43.435Z,28.47
2023-05-24T06:37:15.403Z,30.20
2023-05-24T06:39:45.639Z,22.17
2023-05-24T06:42:14.142Z,25.83
2023-05-24T06:44:47.232Z,30.90
2023-05-24T06:47:15.989Z,33.03
2023-05-24T06:49:44.725Z,23.50
2023-05-24T06:52:14.027Z,28.00
2023-05-24T06:54:44.291Z,30.43
2023-05-24T06:57:13.015Z,25.67
2023-05-24T06:59:41.553Z,26.67
2023-05-24T07:02:10.181Z,24.77
2023-05-24T07:04:41.366Z,26.93
2023-05-24T07:07:13.324Z,27.47
2023-05-24T07:09:42.587Z,30.40
2023-05-24T07:12:12.842Z,27.47
2023-05-24T07:14:41.720Z,23.50
2023-05-24T07:17:11.597Z,17.43
2023-05-24T07:19:41.940Z,25.93
2023-05-24T07:22:11.268Z,26.93
2023-05-24T07:24:39.767Z,29.30
2023-05-24T07:27:08.351Z,24.00
2023-05-24T07:29:38.396Z,24.90
2023-05-24T07:32:07.737Z,21.17
2023-05-24T07:34:36.636Z,25.67
2023-05-24T07:37:05.627Z,22.93
2023-05-24T07:39:34.517Z,20.60
2023-05-24T07:42:03.282Z,21.37
2023-05-24T07:44:32.293Z,24.47
2023-05-24T07:47:03.699Z,20.50
2023-05-24T07:49:32.372Z,21.87
2023-05-24T07:52:01.014Z,25.97
2023-05-24T07:54:29.481Z,23.63
2023-05-24T07:56:58.174Z,22.40
2023-05-24T07:59:27.244Z,25.27
2023-05-24T08:01:55.892Z,24.40
2023-05-24T08:04:25.868Z,21.53
2023-05-24T08:06:58.184Z,16.57
2023-05-24T08:09:28.059Z,24.60
2023-05-24T08:11:56.754Z,24.87
2023-05-24T08:14:25.504Z,22.40
2023-05-24T08:16:54.444Z,15.83
2023-05-24T08:19:23.475Z,25.87
2023-05-24T08:21:53.351Z,22.60
2023-05-24T08:24:22.904Z,21.80
2023-05-24T08:26:52.934Z,20.80
2023-05-24T08:29:21.538Z,28.70
2023-05-24T08:31:50.302Z,17.63
2023-05-24T08:34:18.957Z,23.27
2023-05-24T08:36:47.720Z,17.77
2023-05-24T08:39:18.240Z,20.13
2023-05-24T08:41:57.407Z,24.00
2023-05-24T08:44:45.232Z,24.97
2023-05-24T08:47:15.259Z,17.90
2023-05-24T08:49:44.047Z,23.63
2023-05-24T08:52:14.138Z,21.53
2023-05-24T08:54:44.961Z,16.20
2023-05-24T08:57:14.033Z,20.07
2023-05-24T08:59:43.622Z,20.77
2023-05-24T09:02:15.090Z,21.63
2023-05-24T09:04:45.685Z,24.47
2023-05-24T09:07:16.276Z,15.67
2023-05-24T09:09:51.310Z,17.87
2023-05-24T09:12:35.672Z,17.50
2023-05-24T09:15:08.071Z,20.37
2023-05-24T09:17:38.179Z,18.50
2023-05-24T09:20:09.272Z,18.53
2023-05-24T09:22:41.248Z,11.50
2023-05-24T09:25:15.263Z,15.97
2023-05-24T09:27:47.513Z,19.70
2023-05-24T09:30:17.688Z,20.77
2023-05-24T09:32:57.320Z,23.80
2023-05-24T09:35:27.159Z,17.03
2023-05-24T09:37:57.421Z,17.60
2023-05-24T09:40:28.299Z,16.20
2023-05-24T09:43:10.902Z,22.67
2023-05-24T09:45:43.052Z,17.80
2023-05-24T09:48:13.388Z,13.90
2023-05-24T09:50:43.349Z,22.03
2023-05-24T09:53:12.390Z,17.13
2023-05-24T09:55:42.517Z,15.37
2023-05-24T09:58:13.051Z,15.67
2023-05-24T10:00:43.243Z,19.20
2023-05-24T10:03:13.640Z,19.37
2023-05-24T10:05:45.513Z,23.27
2023-05-24T10:08:15.220Z,15.30
2023-05-24T10:10:47.026Z,17.57
2023-05-24T10:13:17.906Z,12.30
2023-05-24T10:15:47.086Z,13.77
2023-05-24T10:18:16.500Z,14.60
2023-05-24T10:20:45.913Z,13.83
2023-05-24T10:23:20.711Z,21.10
2023-05-24T10:26:06.689Z,16.33
2023-05-24T10:28:38.176Z,20.43
2023-05-24T10:31:12.521Z,21.07
2023-05-24T10:33:44.157Z,13.83
2023-05-24T10:36:16.206Z,16.60
2023-05-24T10:38:44.821Z,17.67
2023-05-24T10:41:15.522Z,13.20
2023-05-24T10:44:00.660Z,15.77
2023-05-24T10:46:37.166Z,13.27
2023-05-24T10:49:08.024Z,11.73
2023-05-24T10:51:38.908Z,12.37
2023-05-24T10:54:19.007Z,15.77
2023-05-24T10:56:50.700Z,16.43
2023-05-24T10:59:31.812Z,12.40
2023-05-24T11:02:01.323Z,11.20
2023-05-24T11:04:35.445Z,11.27
2023-05-24T11:07:11.410Z,13.67
2023-05-24T11:09:47.414Z,11.57
2023-05-24T11:12:18.837Z,11.47
2023-05-24T11:14:52.906Z,14.00
2023-05-24T11:17:23.331Z,15.47
2023-05-24T11:19:53.746Z,10.37
2023-05-24T11:22:25.532Z,12.70
2023-05-24T11:24:55.027Z,16.57
2023-05-24T11:27:25.825Z,15.47
2023-05-24T11:29:56.061Z,13.70
2023-05-24T11:32:25.625Z,13.07
2023-05-24T11:34:54.526Z,15.53
2023-05-24T11:37:34.900Z,11.57
2023-05-24T11:40:13.360Z,10.77
2023-05-24T11:42:44.631Z,12.53
2023-05-24T11:45:14.062Z,11.80
2023-05-24T11:47:42.915Z,12.23
2023-05-24T11:50:16.392Z,13.73
2023-05-24T11:52:45.260Z,13.23
2023-05-24T11:55:17.514Z,11.10
2023-05-24T11:57:55.178Z,13.43
2023-05-24T12:00:27.879Z,13.57
2023-05-24T12:03:02.006Z,11.67
2023-05-24T12:05:32.127Z,14.83
2023-05-24T12:08:12.414Z,14.97
2023-05-24T12:10:43.177Z,13.17
2023-05-24T12:13:24.090Z,15.10
2023-05-24T12:15:56.334Z,16.13
2023-05-24T12:18:28.892Z,12.63
2023-05-24T12:20:58.025Z,13.43
2023-05-24T12:23:29.799Z,12.63
2023-05-24T12:26:02.542Z,8.93
2023-05-24T12:28:39.380Z,12.90
2023-05-24T12:31:08.974Z,11.57
2023-05-24T12:33:41.680Z,12.03
2023-05-24T12:36:12.707Z,9.20
2023-05-24T12:38:42.043Z,10.00
2023-05-24T12:41:14.295Z,13.20
2023-05-24T12:43:45.933Z,10.80
2023-05-24T12:46:15.349Z,12.47
2023-05-24T12:48:44.598Z,12.33
2023-05-24T12:51:13.694Z,8.50
2023-05-24T12:53:43.452Z,9.40
2023-05-24T12:56:12.471Z,14.87
2023-05-24T12:58:41.466Z,9.77
2023-05-24T13:01:12.577Z,11.27
2023-05-24T13:03:41.953Z,12.60
2023-05-24T13:06:10.923Z,10.70
2023-05-24T13:08:42.461Z,15.77
2023-05-24T13:11:11.724Z,16.30
2023-05-24T13:13:40.937Z,14.67
2023-05-24T13:16:11.509Z,14.83
2023-05-24T13:18:40.397Z,13.27
2023-05-24T13:21:12.030Z,10.00
2023-05-24T13:23:43.353Z,11.20
2023-05-24T13:26:14.109Z,16.47
2023-05-24T13:29:07.663Z,7.40
2023-05-24T13:31:34.786Z,13.20
2023-05-24T13:34:03.849Z,12.43
2023-05-24T13:36:37.678Z,10.07
2023-05-24T13:39:28.110Z,14.97
2023-05-24T13:41:57.810Z,11.77
2023-05-24T13:44:38.110Z,11.00
2023-05-24T13:47:38.543Z,9.10
2023-05-24T13:50:12.790Z,11.87
2023-05-24T13:52:43.181Z,9.37
2023-05-24T13:55:15.432Z,11.47
2023-05-24T13:57:51.636Z,9.47
2023-05-24T14:00:25.687Z,11.93
2023-05-24T14:02:58.520Z,15.47
2023-05-24T14:05:32.072Z,10.10
2023-05-24T14:08:07.082Z,11.70
2023-05-24T14:10:41.532Z,10.17
2023-05-24T14:13:36.822Z,14.17
2023-05-24T14:16:01.343Z,15.00
2023-05-24T14:18:32.087Z,12.40
2023-05-24T14:21:04.549Z,11.97
2023-05-24T14:23:33.730Z,10.17
2023-05-24T14:26:05.636Z,15.30
2023-05-24T14:28:39.723Z,9.23
2023-05-24T14:31:08.968Z,14.37
2023-05-24T14:33:43.552Z,14.30
2023-05-24T14:36:12.478Z,12.80
2023-05-24T14:38:41.914Z,15.67
2023-05-24T14:41:11.296Z,11.83
2023-05-24T14:43:40.931Z,12.23
2023-05-24T14:46:11.588Z,10.80
2023-05-24T14:48:42.633Z,16.13
2023-05-24T14:51:12.842Z,11.10
2023-05-24T14:53:42.008Z,12.07
2023-05-24T14:56:11.513Z,11.00
2023-05-24T14:58:40.274Z,11.93
2023-05-24T15:01:09.347Z,13.33
2023-05-24T15:03:39.340Z,12.37
2023-05-24T15:06:12.827Z,12.20
2023-05-24T15:08:41.946Z,13.23
2023-05-24T15:11:13.841Z,11.70
2023-05-24T15:13:43.164Z,14.10
2023-05-24T15:16:13.414Z,9.03
2023-05-24T15:18:42.705Z,8.50
2023-05-24T15:21:14.543Z,9.00
2023-05-24T15:23:43.689Z,11.37
2023-05-24T15:26:12.702Z,8.27
2023-05-24T15:28:41.974Z,9.00
2023-05-24T15:31:11.898Z,9.97
2023-05-24T15:33:40.948Z,10.30
2023-05-24T15:36:11.169Z,13.17
2023-05-24T15:38:43.664Z,13.70
2023-05-24T15:41:12.965Z,12.97
2023-05-24T15:43:41.812Z,12.20
2023-05-24T15:46:12.351Z,13.30
2023-05-24T15:48:41.236Z,10.67
2023-05-24T15:53:43.424Z,9.93
2023-05-24T15:56:12.890Z,9.60
2023-05-24T15:58:42.073Z,10.47
2023-05-24T16:01:11.381Z,9.90
2023-05-24T16:03:40.253Z,10.63
2023-05-24T16:06:09.897Z,15.13
2023-05-24T16:08:38.944Z,14.37
2023-05-24T16:11:10.232Z,9.63
2023-05-24T16:13:40.206Z,16.07
2023-05-24T16:16:09.304Z,10.63
2023-05-24T16:18:44.324Z,10.80
2023-05-24T16:21:14.536Z,11.90
2023-05-24T16:23:45.037Z,14.67
2023-05-24T16:26:18.094Z,11.43
2023-05-24T16:28:47.028Z,9.83
2023-05-24T16:31:16.904Z,12.17
2023-05-24T16:33:47.039Z,9.67
2023-05-24T16:36:16.892Z,11.97
2023-05-24T16:38:45.958Z,10.37
2023-05-24T16:41:18.603Z,11.17
2023-05-24T16:43:47.573Z,11.87
2023-05-24T16:46:16.922Z,14.47
2023-05-24T16:48:47.050Z,8.23
2023-05-24T16:51:19.603Z,10.20
2023-05-24T16:53:48.993Z,13.07
2023-05-24T16:56:19.962Z,13.60
2023-05-24T16:58:49.105Z,9.03
2023-05-24T17:01:18.892Z,9.70
2023-05-24T17:03:49.719Z,11.77
2023-05-24T17:06:19.201Z,10.40
2023-05-24T17:08:48.075Z,8.20
2023-05-24T17:11:18.669Z,10.27
2023-05-24T17:13:57.271Z,9.60
2023-05-24T17:16:30.679Z,12.07
2023-05-24T17:19:01.416Z,12.30
2023-05-24T17:21:31.901Z,14.90
2023-05-24T17:24:01.646Z,10.43
2023-05-24T17:26:30.652Z,9.93
2023-05-24T17:29:00.881Z,9.93
2023-05-24T17:31:30.667Z,9.73
2023-05-24T17:34:00.116Z,10.30
2023-05-24T17:36:30.245Z,12.97
2023-05-24T17:38:59.694Z,11.93
2023-05-24T17:41:30.140Z,11.57
2023-05-24T17:44:04.747Z,8.93
2023-05-24T17:46:37.311Z,12.17
2023-05-24T17:52:54.712Z,10.17
2023-05-24T17:55:25.516Z,12.57
2023-05-24T17:57:55.061Z,8.03
2023-05-24T18:00:28.266Z,11.33
2023-05-24T18:02:57.206Z,10.70
2023-05-24T18:05:26.245Z,14.23
2023-05-24T18:07:55.843Z,9.40
2023-05-24T18:10:24.910Z,12.87
2023-05-24T18:12:54.252Z,7.23
2023-05-24T18:15:24.720Z,9.83
2023-05-24T18:17:55.651Z,9.97
2023-05-24T18:20:25.657Z,10.33
2023-05-24T18:22:56.306Z,9.30
2023-05-24T18:25:25.763Z,10.93
2023-05-24T18:27:55.922Z,10.33
2023-05-24T18:30:26.802Z,11.80
2023-05-24T18:33:07.091Z,11.83
2023-05-24T18:35:36.766Z,10.77
2023-05-24T18:38:08.814Z,13.60
2023-05-24T18:40:40.356Z,11.30
2023-05-24T18:43:11.258Z,10.33
2023-05-24T18:45:45.463Z,11.10
2023-05-24T18:48:14.993Z,11.27
2023-05-24T18:50:46.445Z,11.47
2023-05-24T18:53:16.692Z,11.17
2023-05-24T18:55:56.406Z,10.70
2023-05-24T18:58:30.908Z,7.87
2023-05-24T19:00:59.857Z,11.70
2023-05-24T19:03:32.099Z,13.57
2023-05-24T19:06:02.333Z,14.50
2023-05-24T19:08:31.524Z,16.03
2023-05-24T19:11:09.727Z,13.57
2023-05-24T19:13:40.004Z,13.70
2023-05-24T19:16:18.776Z,11.60
2023-05-24T19:18:52.178Z,16.37
2023-05-24T19:21:26.272Z,10.30
2023-05-24T19:23:56.251Z,12.70
2023-05-24T19:26:34.306Z,11.03
2023-05-24T19:29:07.460Z,10.57
2023-05-24T19:31:36.829Z,11.33
2023-05-24T19:34:05.887Z,10.23
2023-05-24T19:36:36.421Z,11.97
2023-05-24T19:39:08.078Z,8.97
2023-05-24T19:41:39.869Z,9.07
2023-05-24T19:44:10.207Z,11.23
2023-05-24T19:46:40.904Z,6.20
2023-05-24T19:49:13.926Z,16.23
2023-05-24T19:51:44.129Z,11.30
2023-05-24T19:54:17.845Z,10.57
2023-05-24T19:56:52.098Z,9.80
2023-05-24T19:59:24.727Z,9.10
2023-05-24T20:01:56.336Z,9.27
2023-05-24T20:04:25.695Z,11.60
2023-05-24T20:06:59.507Z,13.10
2023-05-24T20:09:29.454Z,8.87
2023-05-24T20:11:59.952Z,15.03
2023-05-24T20:14:31.836Z,11.17
2023-05-24T20:17:02.644Z,15.63
2023-05-24T20:19:34.182Z,7.90
2023-05-24T20:22:04.381Z,13.53
2023-05-24T20:24:34.272Z,10.93
2023-05-24T20:27:06.727Z,11.37
2023-05-24T20:29:36.465Z,6.87
2023-05-24T20:32:06.281Z,14.13
2023-05-24T20:34:39.795Z,12.93
2023-05-24T20:37:12.070Z,12.40
2023-05-24T20:39:44.007Z,13.03
2023-05-24T20:42:14.801Z,7.87
2023-05-24T20:44:48.152Z,14.70
2023-05-24T20:47:19.861Z,6.03
2023-05-24T20:49:51.032Z,16.23
2023-05-24T20:52:20.681Z,9.13
2023-05-24T20:54:52.593Z,9.60
2023-05-24T20:57:27.430Z,10.60
2023-05-24T20:59:56.782Z,15.40
2023-05-24T21:02:28.873Z,11.90
2023-05-24T21:04:59.038Z,11.57
2023-05-24T21:07:30.905Z,9.73
2023-05-24T21:10:00.543Z,8.73
2023-05-24T21:12:32.909Z,12.10
2023-05-24T21:15:01.997Z,9.73
2023-05-24T21:17:31.207Z,17.37
2023-05-24T21:20:00.496Z,10.60
2023-05-24T21:22:32.999Z,10.77
2023-05-24T21:25:02.788Z,8.07
2023-05-24T21:27:33.260Z,10.70
2023-05-24T21:30:02.335Z,10.90
2023-05-24T21:32:35.274Z,8.13
2023-05-24T21:35:04.681Z,13.27
2023-05-24T21:37:34.679Z,11.03
2023-05-24T21:40:04.095Z,8.63
2023-05-24T21:42:34.634Z,8.33
2023-05-24T21:45:04.307Z,7.30
2023-05-24T21:47:33.338Z,10.43
2023-05-24T21:50:02.872Z,13.57
2023-05-24T21:52:31.843Z,10.47
2023-05-24T21:55:01.045Z,6.90
2023-05-24T21:57:30.018Z,8.93
2023-05-24T22:00:00.986Z,12.60
2023-05-24T22:02:30.480Z,10.07
2023-05-24T22:04:59.742Z,12.17
2023-05-24T22:07:28.660Z,17.87
2023-05-24T22:09:58.662Z,12.07
2023-05-24T22:12:27.724Z,13.47
2023-05-24T22:14:56.434Z,11.50
2023-05-24T22:17:29.607Z,9.67
2023-05-24T22:20:01.518Z,11.83
2023-05-24T22:22:30.534Z,15.70
2023-05-24T22:24:59.650Z,13.57
2023-05-24T22:27:28.304Z,12.80
2023-05-24T22:29:59.814Z,14.73
2023-05-24T22:32:29.754Z,15.30
2023-05-24T22:34:58.358Z,13.23
2023-05-24T22:37:26.977Z,9.83
2023-05-24T22:39:56.084Z,9.33
2023-05-24T22:42:24.853Z,11.47
2023-05-24T22:44:53.337Z,11.07
2023-05-24T22:47:22.036Z,11.90
2023-05-24T22:49:54.146Z,12.20
2023-05-24T22:52:24.642Z,16.13
2023-05-24T22:54:53.325Z,15.97
2023-05-24T22:57:23.005Z,10.73
2023-05-24T22:59:51.615Z,8.40
2023-05-24T23:02:20.290Z,7.70
2023-05-24T23:04:48.809Z,10.03
2023-05-24T23:07:21.706Z,9.40
2023-05-24T23:09:50.281Z,9.37
2023-05-24T23:12:21.177Z,6.73
2023-05-24T23:14:49.684Z,6.90
2023-05-24T23:17:20.529Z,7.20
2023-05-24T23:19:50.500Z,11.63
2023-05-24T23:22:23.808Z,6.23
2023-05-24T23:24:52.698Z,10.23
2023-05-24T23:27:21.278Z,10.87
2023-05-24T23:29:49.826Z,13.77
2023-05-24T23:32:18.318Z,14.00
2023-05-24T23:34:46.964Z,7.97
2023-05-24T23:37:15.549Z,6.27
2023-05-24T23:39:45.667Z,11.43
2023-05-24T23:42:14.468Z,8.33
2023-05-24T23:44:43.228Z,7.87
2023-05-24T23:47:11.889Z,8.90
2023-05-24T23:49:40.469Z,9.20
2023-05-24T23:52:08.899Z,9.27
2023-05-24T23:54:37.535Z,8.37
2023-05-24T23:57:07.723Z,14.07
2023-05-24T23:59:36.539Z,8.07
